sensor_id;sensor_type;location;lat;lon;timestamp;temperature;humidity
54409;DHT22;40315;48.620;9.828;2023-04-25T00:02:21;7.70;99.90
54409;DHT22;40315;48.620;9.828;2023-04-25T00:04:50;7.70;99.90
54409;DHT22;40315;48.620;9.828;2023-04-25T00:07:17;7.60;99.90
54409;DHT22;40315;48.620;9.828;2023-04-25T00:09:45;7.80;99.90
54409;DHT22;40315;48.620;9.828;2023-04-25T00:12:12;7.90;99.90
54409;DHT22;40315;48.620;9.828;2023-04-25T00:14:39;7.70;99.90
54409;DHT22;40315;48.620;9.828;2023-04-25T00:17:06;7.80;99.90
54409;DHT22;40315;48.620;9.828;2023-04-25T00:19:34;7.70;99.90
54409;DHT22;40315;48.620;9.828;2023-04-25T00:22:03;7.60;99.90
54409;DHT22;40315;48.620;9.828;2023-04-25T00:24:31;7.60;99.90
54409;DHT22;40315;48.620;9.828;2023-04-25T00:26:58;7.70;99.90
54409;DHT22;40315;48.620;9.828;2023-04-25T00:29:25;7.60;99.90
54409;DHT22;40315;48.620;9.828;2023-04-25T00:31:52;7.70;99.90
54409;DHT22;40315;48.620;9.828;2023-04-25T00:34:19;7.60;99.90
54409;DHT22;40315;48.620;9.828;2023-04-25T00:36:47;7.60;99.90
54409;DHT22;40315;48.620;9.828;2023-04-25T00:39:16;7.70;99.90
54409;DHT22;40315;48.620;9.828;2023-04-25T00:41:43;7.60;99.90
54409;DHT22;40315;48.620;9.828;2023-04-25T00:44:11;8.40;99.90
54409;DHT22;40315;48.620;9.828;2023-04-25T00:46:39;8.40;99.90
54409;DHT22;40315;48.620;9.828;2023-04-25T00:49:06;7.40;99.90
54409;DHT22;40315;48.620;9.828;2023-04-25T00:51:33;7.30;99.90
54409;DHT22;40315;48.620;9.828;2023-04-25T00:54:02;7.40;99.90
54409;DHT22;40315;48.620;9.828;2023-04-25T00:56:29;7.20;99.90
54409;DHT22;40315;48.620;9.828;2023-04-25T00:58:56;7.90;99.90
54409;DHT22;40315;48.620;9.828;2023-04-25T01:04:16;7.10;99.90
54409;DHT22;40315;48.620;9.828;2023-04-25T01:06:44;7.20;99.90
54409;DHT22;40315;48.620;9.828;2023-04-25T01:09:13;7.10;99.90
54409;DHT22;40315;48.620;9.828;2023-04-25T01:11:40;7.20;99.90
54409;DHT22;40315;48.620;9.828;2023-04-25T01:14:07;7.00;99.90
54409;DHT22;40315;48.620;9.828;2023-04-25T01:16:34;7.40;99.90
54409;DHT22;40315;48.620;9.828;2023-04-25T01:19:05;7.50;99.90
54409;DHT22;40315;48.620;9.828;2023-04-25T01:24:06;6.80;99.90
54409;DHT22;40315;48.620;9.828;2023-04-25T01:26:34;6.90;99.90
54409;DHT22;40315;48.620;9.828;2023-04-25T01:29:01;7.30;99.90
54409;DHT22;40315;48.620;9.828;2023-04-25T01:31:29;6.90;99.90
54409;DHT22;40315;48.620;9.828;2023-04-25T01:33:57;6.80;99.90
54409;DHT22;40315;48.620;9.828;2023-04-25T01:36:24;6.80;99.90
54409;DHT22;40315;48.620;9.828;2023-04-25T01:38:54;6.70;99.90
54409;DHT22;40315;48.620;9.828;2023-04-25T01:41:22;6.80;99.90
54409;DHT22;40315;48.620;9.828;2023-04-25T01:43:50;6.80;99.90
54409;DHT22;40315;48.620;9.828;2023-04-25T01:52:50;6.90;99.90
54409;DHT22;40315;48.620;9.828;2023-04-25T01:55:20;6.90;99.90
54409;DHT22;40315;48.620;9.828;2023-04-25T01:58:01;6.80;99.90
54409;DHT22;40315;48.620;9.828;2023-04-25T02:00:48;6.80;99.90
54409;DHT22;40315;48.620;9.828;2023-04-25T02:03:16;7.00;99.90
54409;DHT22;40315;48.620;9.828;2023-04-25T02:05:43;7.00;99.90
54409;DHT22;40315;48.620;9.828;2023-04-25T02:08:12;7.00;99.90
54409;DHT22;40315;48.620;9.828;2023-04-25T02:10:40;7.20;99.90
54409;DHT22;40315;48.620;9.828;2023-04-25T02:13:19;7.00;99.90
54409;DHT22;40315;48.620;9.828;2023-04-25T02:15:55;7.40;99.90
54409;DHT22;40315;48.620;9.828;2023-04-25T02:18:22;6.90;99.90
54409;DHT22;40315;48.620;9.828;2023-04-25T02:20:49;6.80;99.90
54409;DHT22;40315;48.620;9.828;2023-04-25T02:23:16;6.90;99.90
54409;DHT22;40315;48.620;9.828;2023-04-25T02:25:46;7.40;99.90
54409;DHT22;40315;48.620;9.828;2023-04-25T02:28:13;7.10;99.90
54409;DHT22;40315;48.620;9.828;2023-04-25T02:30:40;7.10;99.90
54409;DHT22;40315;48.620;9.828;2023-04-25T02:33:07;7.20;99.90
54409;DHT22;40315;48.620;9.828;2023-04-25T02:35:35;7.20;99.90
54409;DHT22;40315;48.620;9.828;2023-04-25T02:38:02;7.10;99.90
54409;DHT22;40315;48.620;9.828;2023-04-25T02:40:29;7.00;99.90
54409;DHT22;40315;48.620;9.828;2023-04-25T02:42:57;7.10;99.90
54409;DHT22;40315;48.620;9.828;2023-04-25T02:45:26;7.00;99.90
54409;DHT22;40315;48.620;9.828;2023-04-25T02:47:53;6.90;99.90
54409;DHT22;40315;48.620;9.828;2023-04-25T02:50:20;7.00;99.90
54409;DHT22;40315;48.620;9.828;2023-04-25T02:52:47;7.00;99.90
54409;DHT22;40315;48.620;9.828;2023-04-25T02:55:18;7.10;99.90
54409;DHT22;40315;48.620;9.828;2023-04-25T02:57:46;7.20;99.90
54409;DHT22;40315;48.620;9.828;2023-04-25T03:00:22;7.20;99.90
54409;DHT22;40315;48.620;9.828;2023-04-25T03:02:49;7.20;99.90
54409;DHT22;40315;48.620;9.828;2023-04-25T03:05:17;7.20;99.90
54409;DHT22;40315;48.620;9.828;2023-04-25T03:07:46;7.10;99.90
54409;DHT22;40315;48.620;9.828;2023-04-25T03:10:15;7.10;99.90
54409;DHT22;40315;48.620;9.828;2023-04-25T03:12:43;7.10;99.90
54409;DHT22;40315;48.620;9.828;2023-04-25T03:15:10;7.10;99.90
54409;DHT22;40315;48.620;9.828;2023-04-25T03:17:38;7.10;99.90
54409;DHT22;40315;48.620;9.828;2023-04-25T03:20:07;7.10;99.90
54409;DHT22;40315;48.620;9.828;2023-04-25T03:22:34;7.10;99.90
54409;DHT22;40315;48.620;9.828;2023-04-25T03:25:01;6.90;99.90
54409;DHT22;40315;48.620;9.828;2023-04-25T03:27:28;6.70;99.90
54409;DHT22;40315;48.620;9.828;2023-04-25T03:29:55;7.30;99.90
54409;DHT22;40315;48.620;9.828;2023-04-25T03:32:24;6.70;99.90
54409;DHT22;40315;48.620;9.828;2023-04-25T03:34:53;6.60;99.90
54409;DHT22;40315;48.620;9.828;2023-04-25T03:39:48;6.70;99.90
54409;DHT22;40315;48.620;9.828;2023-04-25T03:42:15;6.70;99.90
54409;DHT22;40315;48.620;9.828;2023-04-25T03:44:44;6.70;99.90
54409;DHT22;40315;48.620;9.828;2023-04-25T03:47:11;6.60;99.90
54409;DHT22;40315;48.620;9.828;2023-04-25T03:49:38;6.60;99.90
54409;DHT22;40315;48.620;9.828;2023-04-25T03:52:07;6.70;99.90
54409;DHT22;40315;48.620;9.828;2023-04-25T03:54:38;6.70;99.90
54409;DHT22;40315;48.620;9.828;2023-04-25T03:57:08;6.90;99.90
54409;DHT22;40315;48.620;9.828;2023-04-25T03:59:38;7.80;99.90
54409;DHT22;40315;48.620;9.828;2023-04-25T04:02:07;7.50;99.90
54409;DHT22;40315;48.620;9.828;2023-04-25T04:04:35;6.70;99.90
54409;DHT22;40315;48.620;9.828;2023-04-25T04:07:07;6.60;99.90
54409;DHT22;40315;48.620;9.828;2023-04-25T04:09:36;7.80;99.90
54409;DHT22;40315;48.620;9.828;2023-04-25T04:12:07;6.70;99.90
54409;DHT22;40315;48.620;9.828;2023-04-25T04:14:38;6.60;99.90
54409;DHT22;40315;48.620;9.828;2023-04-25T04:17:05;6.50;99.90
54409;DHT22;40315;48.620;9.828;2023-04-25T04:19:33;6.50;99.90
54409;DHT22;40315;48.620;9.828;2023-04-25T04:22:14;6.50;99.90
54409;DHT22;40315;48.620;9.828;2023-04-25T04:24:42;6.70;99.90
54409;DHT22;40315;48.620;9.828;2023-04-25T04:27:09;6.70;99.90
54409;DHT22;40315;48.620;9.828;2023-04-25T04:29:53;6.80;99.90
54409;DHT22;40315;48.620;9.828;2023-04-25T04:32:29;6.80;99.90
54409;DHT22;40315;48.620;9.828;2023-04-25T04:34:58;7.80;99.90
54409;DHT22;40315;48.620;9.828;2023-04-25T04:37:29;6.80;99.90
54409;DHT22;40315;48.620;9.828;2023-04-25T04:39:57;6.90;99.90
54409;DHT22;40315;48.620;9.828;2023-04-25T04:42:44;6.80;99.90
54409;DHT22;40315;48.620;9.828;2023-04-25T04:45:24;6.90;99.90
54409;DHT22;40315;48.620;9.828;2023-04-25T04:48:06;8.00;99.90
54409;DHT22;40315;48.620;9.828;2023-04-25T04:50:47;6.90;99.90
54409;DHT22;40315;48.620;9.828;2023-04-25T04:53:15;6.90;99.90
54409;DHT22;40315;48.620;9.828;2023-04-25T04:55:45;6.90;99.90
54409;DHT22;40315;48.620;9.828;2023-04-25T04:58:32;6.80;99.90
54409;DHT22;40315;48.620;9.828;2023-04-25T05:01:21;6.80;99.90
54409;DHT22;40315;48.620;9.828;2023-04-25T05:04:21;6.80;99.90
54409;DHT22;40315;48.620;9.828;2023-04-25T05:07:06;6.90;99.90
54409;DHT22;40315;48.620;9.828;2023-04-25T05:09:40;6.80;99.90
54409;DHT22;40315;48.620;9.828;2023-04-25T05:12:26;6.90;99.90
54409;DHT22;40315;48.620;9.828;2023-04-25T05:15:13;6.80;99.90
54409;DHT22;40315;48.620;9.828;2023-04-25T05:17:54;6.80;99.90
54409;DHT22;40315;48.620;9.828;2023-04-25T05:20:54;6.80;99.90
54409;DHT22;40315;48.620;9.828;2023-04-25T05:23:34;7.30;99.90
54409;DHT22;40315;48.620;9.828;2023-04-25T05:26:10;7.00;99.90
54409;DHT22;40315;48.620;9.828;2023-04-25T05:28:59;7.00;99.90
54409;DHT22;40315;48.620;9.828;2023-04-25T05:31:59;7.10;99.90
54409;DHT22;40315;48.620;9.828;2023-04-25T05:34:26;7.20;99.90
54409;DHT22;40315;48.620;9.828;2023-04-25T05:36:59;7.20;99.90
54409;DHT22;40315;48.620;9.828;2023-04-25T05:39:27;7.20;99.90
54409;DHT22;40315;48.620;9.828;2023-04-25T05:42:13;7.60;99.90
54409;DHT22;40315;48.620;9.828;2023-04-25T05:44:59;7.20;99.90
54409;DHT22;40315;48.620;9.828;2023-04-25T05:47:35;7.40;99.90
54409;DHT22;40315;48.620;9.828;2023-04-25T05:50:08;7.90;99.90
54409;DHT22;40315;48.620;9.828;2023-04-25T05:53:13;7.10;99.90
54409;DHT22;40315;48.620;9.828;2023-04-25T05:55:42;7.30;99.90
54409;DHT22;40315;48.620;9.828;2023-04-25T05:58:25;7.40;99.90
54409;DHT22;40315;48.620;9.828;2023-04-25T06:00:53;7.50;99.90
54409;DHT22;40315;48.620;9.828;2023-04-25T06:03:21;7.50;99.90
54409;DHT22;40315;48.620;9.828;2023-04-25T06:05:48;7.60;99.90
54409;DHT22;40315;48.620;9.828;2023-04-25T06:08:16;7.40;99.90
54409;DHT22;40315;48.620;9.828;2023-04-25T06:10:43;7.50;99.90
54409;DHT22;40315;48.620;9.828;2023-04-25T06:13:10;6.90;99.90
54409;DHT22;40315;48.620;9.828;2023-04-25T06:15:39;6.80;99.90
54409;DHT22;40315;48.620;9.828;2023-04-25T06:18:06;7.00;99.90
54409;DHT22;40315;48.620;9.828;2023-04-25T06:20:33;7.30;99.90
54409;DHT22;40315;48.620;9.828;2023-04-25T06:23:01;7.20;99.90
54409;DHT22;40315;48.620;9.828;2023-04-25T06:25:40;7.20;99.90
54409;DHT22;40315;48.620;9.828;2023-04-25T06:28:07;7.20;99.90
54409;DHT22;40315;48.620;9.828;2023-04-25T06:30:34;7.20;99.90
54409;DHT22;40315;48.620;9.828;2023-04-25T06:33:07;7.30;99.90
54409;DHT22;40315;48.620;9.828;2023-04-25T06:35:35;7.30;99.90
54409;DHT22;40315;48.620;9.828;2023-04-25T06:38:06;7.30;99.90
54409;DHT22;40315;48.620;9.828;2023-04-25T06:40:37;7.40;99.90
54409;DHT22;40315;48.620;9.828;2023-04-25T06:43:05;7.50;99.90
54409;DHT22;40315;48.620;9.828;2023-04-25T06:45:43;7.50;99.90
54409;DHT22;40315;48.620;9.828;2023-04-25T06:48:11;7.40;99.90
54409;DHT22;40315;48.620;9.828;2023-04-25T06:50:38;7.40;99.90
54409;DHT22;40315;48.620;9.828;2023-04-25T06:53:08;7.40;99.90
54409;DHT22;40315;48.620;9.828;2023-04-25T06:55:37;7.60;99.90
54409;DHT22;40315;48.620;9.828;2023-04-25T06:58:17;7.50;99.90
54409;DHT22;40315;48.620;9.828;2023-04-25T07:00:53;7.30;99.90
54409;DHT22;40315;48.620;9.828;2023-04-25T07:03:24;7.10;99.90
54409;DHT22;40315;48.620;9.828;2023-04-25T07:05:56;7.30;99.90
54409;DHT22;40315;48.620;9.828;2023-04-25T07:08:24;7.10;99.90
54409;DHT22;40315;48.620;9.828;2023-04-25T07:10:57;7.10;99.90
54409;DHT22;40315;48.620;9.828;2023-04-25T07:13:24;7.10;99.90
54409;DHT22;40315;48.620;9.828;2023-04-25T07:15:51;7.20;99.90
54409;DHT22;40315;48.620;9.828;2023-04-25T07:18:20;7.40;99.90
54409;DHT22;40315;48.620;9.828;2023-04-25T07:20:50;7.40;99.90
54409;DHT22;40315;48.620;9.828;2023-04-25T07:23:18;7.40;99.90
54409;DHT22;40315;48.620;9.828;2023-04-25T07:25:46;7.60;99.90
54409;DHT22;40315;48.620;9.828;2023-04-25T07:28:18;7.70;99.90
54409;DHT22;40315;48.620;9.828;2023-04-25T07:30:47;7.90;99.90
54409;DHT22;40315;48.620;9.828;2023-04-25T07:33:14;8.00;99.90
54409;DHT22;40315;48.620;9.828;2023-04-25T07:35:41;8.00;99.90
54409;DHT22;40315;48.620;9.828;2023-04-25T07:38:09;7.90;99.90
54409;DHT22;40315;48.620;9.828;2023-04-25T07:40:37;8.00;99.90
54409;DHT22;40315;48.620;9.828;2023-04-25T07:43:07;8.00;99.90
54409;DHT22;40315;48.620;9.828;2023-04-25T07:45:41;8.10;99.90
54409;DHT22;40315;48.620;9.828;2023-04-25T07:48:09;8.30;99.90
54409;DHT22;40315;48.620;9.828;2023-04-25T07:50:38;8.30;99.90
54409;DHT22;40315;48.620;9.828;2023-04-25T07:53:05;8.40;99.90
54409;DHT22;40315;48.620;9.828;2023-04-25T07:55:41;8.30;99.90
54409;DHT22;40315;48.620;9.828;2023-04-25T07:58:14;8.30;99.90
54409;DHT22;40315;48.620;9.828;2023-04-25T08:00:44;8.40;99.90
54409;DHT22;40315;48.620;9.828;2023-04-25T08:03:43;8.30;99.90
54409;DHT22;40315;48.620;9.828;2023-04-25T08:06:20;8.10;99.90
54409;DHT22;40315;48.620;9.828;2023-04-25T08:09:10;8.10;99.90
54409;DHT22;40315;48.620;9.828;2023-04-25T08:11:41;8.30;99.90
54409;DHT22;40315;48.620;9.828;2023-04-25T08:14:11;9.30;99.90
54409;DHT22;40315;48.620;9.828;2023-04-25T08:16:40;9.20;99.90
54409;DHT22;40315;48.620;9.828;2023-04-25T08:19:10;8.30;99.90
54409;DHT22;40315;48.620;9.828;2023-04-25T08:21:38;8.40;99.90
54409;DHT22;40315;48.620;9.828;2023-04-25T08:24:09;7.80;99.90
54409;DHT22;40315;48.620;9.828;2023-04-25T08:26:38;8.30;99.90
54409;DHT22;40315;48.620;9.828;2023-04-25T08:29:09;8.70;99.90
54409;DHT22;40315;48.620;9.828;2023-04-25T08:31:39;8.60;99.90
54409;DHT22;40315;48.620;9.828;2023-04-25T08:34:09;9.10;99.90
54409;DHT22;40315;48.620;9.828;2023-04-25T08:36:46;9.00;99.90
54409;DHT22;40315;48.620;9.828;2023-04-25T08:39:37;8.90;99.90
54409;DHT22;40315;48.620;9.828;2023-04-25T08:42:24;9.00;99.90
54409;DHT22;40315;48.620;9.828;2023-04-25T08:44:53;9.10;99.90
54409;DHT22;40315;48.620;9.828;2023-04-25T08:47:23;9.10;99.90
54409;DHT22;40315;48.620;9.828;2023-04-25T08:49:56;9.00;99.90
54409;DHT22;40315;48.620;9.828;2023-04-25T08:52:28;8.90;99.90
54409;DHT22;40315;48.620;9.828;2023-04-25T08:54:57;9.00;99.90
54409;DHT22;40315;48.620;9.828;2023-04-25T08:57:29;9.20;99.90
54409;DHT22;40315;48.620;9.828;2023-04-25T09:00:00;7.90;99.90
54409;DHT22;40315;48.620;9.828;2023-04-25T09:02:31;7.90;99.90
54409;DHT22;40315;48.620;9.828;2023-04-25T09:04:59;7.90;99.90
54409;DHT22;40315;48.620;9.828;2023-04-25T09:07:26;8.10;99.90
54409;DHT22;40315;48.620;9.828;2023-04-25T09:12:22;8.20;99.90
54409;DHT22;40315;48.620;9.828;2023-04-25T09:15:06;8.30;99.90
54409;DHT22;40315;48.620;9.828;2023-04-25T09:17:55;8.40;99.90
54409;DHT22;40315;48.620;9.828;2023-04-25T09:20:23;8.30;99.90
54409;DHT22;40315;48.620;9.828;2023-04-25T09:23:01;8.10;99.90
54409;DHT22;40315;48.620;9.828;2023-04-25T09:25:34;7.50;99.90
54409;DHT22;40315;48.620;9.828;2023-04-25T09:28:06;7.30;99.90
54409;DHT22;40315;48.620;9.828;2023-04-25T09:30:36;7.40;99.90
54409;DHT22;40315;48.620;9.828;2023-04-25T09:33:12;7.60;99.90
54409;DHT22;40315;48.620;9.828;2023-04-25T09:35:44;7.70;99.90
54409;DHT22;40315;48.620;9.828;2023-04-25T09:38:27;7.80;99.90
54409;DHT22;40315;48.620;9.828;2023-04-25T09:40:59;7.80;99.90
54409;DHT22;40315;48.620;9.828;2023-04-25T09:43:49;7.90;99.90
54409;DHT22;40315;48.620;9.828;2023-04-25T09:46:18;7.90;99.90
54409;DHT22;40315;48.620;9.828;2023-04-25T09:48:52;7.90;99.90
54409;DHT22;40315;48.620;9.828;2023-04-25T09:51:30;7.90;99.90
54409;DHT22;40315;48.620;9.828;2023-04-25T09:53:59;7.90;99.90
54409;DHT22;40315;48.620;9.828;2023-04-25T09:56:35;8.00;99.90
54409;DHT22;40315;48.620;9.828;2023-04-25T09:59:05;8.20;99.90
54409;DHT22;40315;48.620;9.828;2023-04-25T10:01:39;8.30;99.90
54409;DHT22;40315;48.620;9.828;2023-04-25T10:04:19;8.30;99.90
54409;DHT22;40315;48.620;9.828;2023-04-25T10:06:59;8.20;99.90
54409;DHT22;40315;48.620;9.828;2023-04-25T10:09:29;8.20;99.90
54409;DHT22;40315;48.620;9.828;2023-04-25T10:11:59;8.20;99.90
54409;DHT22;40315;48.620;9.828;2023-04-25T10:14:27;8.20;99.90
54409;DHT22;40315;48.620;9.828;2023-04-25T10:16:56;8.20;99.90
54409;DHT22;40315;48.620;9.828;2023-04-25T10:21:54;8.30;99.90
54409;DHT22;40315;48.620;9.828;2023-04-25T10:24:23;8.40;99.90
54409;DHT22;40315;48.620;9.828;2023-04-25T10:26:51;8.40;99.90
54409;DHT22;40315;48.620;9.828;2023-04-25T10:29:25;8.50;99.90
54409;DHT22;40315;48.620;9.828;2023-04-25T10:31:52;8.20;99.90
54409;DHT22;40315;48.620;9.828;2023-04-25T10:34:24;8.30;99.90
54409;DHT22;40315;48.620;9.828;2023-04-25T10:36:52;8.30;99.90
54409;DHT22;40315;48.620;9.828;2023-04-25T10:39:24;8.30;99.90
54409;DHT22;40315;48.620;9.828;2023-04-25T10:41:56;8.40;99.90
54409;DHT22;40315;48.620;9.828;2023-04-25T10:44:27;8.30;99.90
54409;DHT22;40315;48.620;9.828;2023-04-25T10:46:55;7.90;99.90
54409;DHT22;40315;48.620;9.828;2023-04-25T10:49:32;7.60;99.90
54409;DHT22;40315;48.620;9.828;2023-04-25T10:52:24;7.70;99.90
54409;DHT22;40315;48.620;9.828;2023-04-25T10:54:52;7.80;99.90
54409;DHT22;40315;48.620;9.828;2023-04-25T10:57:27;8.10;99.90
54409;DHT22;40315;48.620;9.828;2023-04-25T10:59:58;7.40;99.90
54409;DHT22;40315;48.620;9.828;2023-04-25T11:02:28;7.30;99.90
54409;DHT22;40315;48.620;9.828;2023-04-25T11:04:57;7.00;99.90
54409;DHT22;40315;48.620;9.828;2023-04-25T11:07:34;7.00;99.90
54409;DHT22;40315;48.620;9.828;2023-04-25T11:10:05;6.90;99.90
54409;DHT22;40315;48.620;9.828;2023-04-25T11:12:32;6.70;99.90
54409;DHT22;40315;48.620;9.828;2023-04-25T11:15:00;6.80;99.90
54409;DHT22;40315;48.620;9.828;2023-04-25T11:17:30;6.80;99.90
54409;DHT22;40315;48.620;9.828;2023-04-25T11:19:58;6.90;99.90
54409;DHT22;40315;48.620;9.828;2023-04-25T11:22:26;7.00;99.90
54409;DHT22;40315;48.620;9.828;2023-04-25T11:24:54;7.10;99.90
54409;DHT22;40315;48.620;9.828;2023-04-25T11:27:21;7.10;99.90
54409;DHT22;40315;48.620;9.828;2023-04-25T11:32:18;7.40;99.90
54409;DHT22;40315;48.620;9.828;2023-04-25T11:34:47;6.20;99.90
54409;DHT22;40315;48.620;9.828;2023-04-25T11:39:43;7.50;99.90
54409;DHT22;40315;48.620;9.828;2023-04-25T11:42:12;7.10;99.90
54409;DHT22;40315;48.620;9.828;2023-04-25T11:47:09;6.90;99.90
54409;DHT22;40315;48.620;9.828;2023-04-25T11:49:38;6.90;99.90
54409;DHT22;40315;48.620;9.828;2023-04-25T11:52:07;7.10;99.90
54409;DHT22;40315;48.620;9.828;2023-04-25T11:54:36;6.90;99.90
54409;DHT22;40315;48.620;9.828;2023-04-25T11:57:04;6.80;99.90
54409;DHT22;40315;48.620;9.828;2023-04-25T11:59:31;6.50;99.90
54409;DHT22;40315;48.620;9.828;2023-04-25T12:01:58;6.70;99.90
54409;DHT22;40315;48.620;9.828;2023-04-25T12:04:30;7.10;99.90
54409;DHT22;40315;48.620;9.828;2023-04-25T12:06:58;6.30;99.90
54409;DHT22;40315;48.620;9.828;2023-04-25T12:09:31;6.20;99.90
54409;DHT22;40315;48.620;9.828;2023-04-25T12:12:00;5.90;99.90
54409;DHT22;40315;48.620;9.828;2023-04-25T12:14:30;5.90;99.90
54409;DHT22;40315;48.620;9.828;2023-04-25T12:16:59;7.70;99.90
54409;DHT22;40315;48.620;9.828;2023-04-25T12:19:31;5.70;99.90
54409;DHT22;40315;48.620;9.828;2023-04-25T12:22:00;5.80;99.90
54409;DHT22;40315;48.620;9.828;2023-04-25T12:24:28;6.70;99.90
54409;DHT22;40315;48.620;9.828;2023-04-25T12:27:01;5.50;99.90
54409;DHT22;40315;48.620;9.828;2023-04-25T12:29:33;3.90;99.90
54409;DHT22;40315;48.620;9.828;2023-04-25T12:32:00;5.40;99.90
54409;DHT22;40315;48.620;9.828;2023-04-25T12:34:28;5.40;99.90
54409;DHT22;40315;48.620;9.828;2023-04-25T12:36:57;5.50;99.90
54409;DHT22;40315;48.620;9.828;2023-04-25T12:39:24;5.90;99.90
54409;DHT22;40315;48.620;9.828;2023-04-25T12:41:52;5.90;99.90
54409;DHT22;40315;48.620;9.828;2023-04-25T12:44:21;5.70;99.90
54409;DHT22;40315;48.620;9.828;2023-04-25T12:46:48;5.60;99.90
54409;DHT22;40315;48.620;9.828;2023-04-25T12:49:16;6.60;99.90
54409;DHT22;40315;48.620;9.828;2023-04-25T12:51:43;5.70;99.90
54409;DHT22;40315;48.620;9.828;2023-04-25T12:54:12;6.10;99.90
54409;DHT22;40315;48.620;9.828;2023-04-25T12:56:41;6.30;99.90
54409;DHT22;40315;48.620;9.828;2023-04-25T12:59:08;6.30;99.90
54409;DHT22;40315;48.620;9.828;2023-04-25T13:01:36;6.50;99.90
54409;DHT22;40315;48.620;9.828;2023-04-25T13:04:05;7.50;99.90
54409;DHT22;40315;48.620;9.828;2023-04-25T13:06:32;6.90;99.90
54409;DHT22;40315;48.620;9.828;2023-04-25T13:08:59;7.00;99.90
54409;DHT22;40315;48.620;9.828;2023-04-25T13:11:26;7.20;99.90
54409;DHT22;40315;48.620;9.828;2023-04-25T13:13:53;7.10;99.90
54409;DHT22;40315;48.620;9.828;2023-04-25T13:16:20;7.50;99.90
54409;DHT22;40315;48.620;9.828;2023-04-25T13:18:52;7.90;99.90
54409;DHT22;40315;48.620;9.828;2023-04-25T13:23:46;8.50;99.90
54409;DHT22;40315;48.620;9.828;2023-04-25T13:26:16;8.90;99.90
54409;DHT22;40315;48.620;9.828;2023-04-25T13:28:43;8.90;99.90
54409;DHT22;40315;48.620;9.828;2023-04-25T13:31:10;9.10;99.90
54409;DHT22;40315;48.620;9.828;2023-04-25T13:33:37;10.10;99.90
54409;DHT22;40315;48.620;9.828;2023-04-25T13:38:33;9.50;99.90
54409;DHT22;40315;48.620;9.828;2023-04-25T13:41:00;9.90;99.90
54409;DHT22;40315;48.620;9.828;2023-04-25T13:43:27;10.50;99.90
54409;DHT22;40315;48.620;9.828;2023-04-25T13:45:55;10.50;99.90
54409;DHT22;40315;48.620;9.828;2023-04-25T13:48:22;10.60;99.90
54409;DHT22;40315;48.620;9.828;2023-04-25T13:50:49;10.00;99.90
54409;DHT22;40315;48.620;9.828;2023-04-25T13:55:47;9.10;99.90
54409;DHT22;40315;48.620;9.828;2023-04-25T13:58:16;9.40;99.90
54409;DHT22;40315;48.620;9.828;2023-04-25T14:00:43;9.60;99.90
54409;DHT22;40315;48.620;9.828;2023-04-25T14:03:12;9.20;99.90
54409;DHT22;40315;48.620;9.828;2023-04-25T14:05:39;8.70;99.90
54409;DHT22;40315;48.620;9.828;2023-04-25T14:08:07;8.50;99.90
54409;DHT22;40315;48.620;9.828;2023-04-25T14:10:36;8.50;99.90
54409;DHT22;40315;48.620;9.828;2023-04-25T14:13:05;8.50;99.90
54409;DHT22;40315;48.620;9.828;2023-04-25T14:15:35;8.50;99.90
54409;DHT22;40315;48.620;9.828;2023-04-25T14:18:03;8.40;99.90
54409;DHT22;40315;48.620;9.828;2023-04-25T14:20:30;8.50;99.90
54409;DHT22;40315;48.620;9.828;2023-04-25T14:22:57;8.70;99.90
54409;DHT22;40315;48.620;9.828;2023-04-25T14:25:25;9.00;99.90
54409;DHT22;40315;48.620;9.828;2023-04-25T14:30:23;8.80;99.90
54409;DHT22;40315;48.620;9.828;2023-04-25T14:32:50;9.00;99.90
54409;DHT22;40315;48.620;9.828;2023-04-25T14:35:17;9.00;99.90
54409;DHT22;40315;48.620;9.828;2023-04-25T14:37:45;8.80;99.90
54409;DHT22;40315;48.620;9.828;2023-04-25T14:40:14;9.00;99.90
54409;DHT22;40315;48.620;9.828;2023-04-25T14:42:42;8.80;99.90
54409;DHT22;40315;48.620;9.828;2023-04-25T14:45:11;8.70;99.90
54409;DHT22;40315;48.620;9.828;2023-04-25T14:47:38;8.80;99.90
54409;DHT22;40315;48.620;9.828;2023-04-25T14:50:06;8.70;99.90
54409;DHT22;40315;48.620;9.828;2023-04-25T14:52:34;8.90;99.90
54409;DHT22;40315;48.620;9.828;2023-04-25T14:55:01;9.20;99.90
54409;DHT22;40315;48.620;9.828;2023-04-25T14:57:30;9.60;99.90
54409;DHT22;40315;48.620;9.828;2023-04-25T14:59:57;9.80;99.90
54409;DHT22;40315;48.620;9.828;2023-04-25T15:02:26;10.10;99.90
54409;DHT22;40315;48.620;9.828;2023-04-25T15:04:53;10.10;99.90
54409;DHT22;40315;48.620;9.828;2023-04-25T15:07:21;9.90;99.90
54409;DHT22;40315;48.620;9.828;2023-04-25T15:09:48;9.70;99.90
54409;DHT22;40315;48.620;9.828;2023-04-25T15:12:15;9.50;99.90
54409;DHT22;40315;48.620;9.828;2023-04-25T15:14:42;9.20;99.90
54409;DHT22;40315;48.620;9.828;2023-04-25T15:17:09;9.00;99.90
54409;DHT22;40315;48.620;9.828;2023-04-25T15:19:40;8.90;99.90
54409;DHT22;40315;48.620;9.828;2023-04-25T15:22:07;9.60;99.90
54409;DHT22;40315;48.620;9.828;2023-04-25T15:24:34;8.90;99.90
54409;DHT22;40315;48.620;9.828;2023-04-25T15:27:01;9.00;99.90
54409;DHT22;40315;48.620;9.828;2023-04-25T15:29:33;9.00;99.90
54409;DHT22;40315;48.620;9.828;2023-04-25T15:32:01;8.90;99.90
54409;DHT22;40315;48.620;9.828;2023-04-25T15:34:28;9.00;99.90
54409;DHT22;40315;48.620;9.828;2023-04-25T15:36:57;8.90;99.90
54409;DHT22;40315;48.620;9.828;2023-04-25T15:39:24;8.90;99.90
54409;DHT22;40315;48.620;9.828;2023-04-25T15:41:51;9.10;99.90
54409;DHT22;40315;48.620;9.828;2023-04-25T15:44:18;9.30;99.90
54409;DHT22;40315;48.620;9.828;2023-04-25T15:46:45;9.20;99.90
54409;DHT22;40315;48.620;9.828;2023-04-25T15:49:12;9.10;99.90
54409;DHT22;40315;48.620;9.828;2023-04-25T15:51:41;9.10;99.90
54409;DHT22;40315;48.620;9.828;2023-04-25T15:54:10;9.10;99.90
54409;DHT22;40315;48.620;9.828;2023-04-25T15:56:37;9.20;99.90
54409;DHT22;40315;48.620;9.828;2023-04-25T15:59:03;9.80;99.90
54409;DHT22;40315;48.620;9.828;2023-04-25T16:01:30;9.90;99.90
54409;DHT22;40315;48.620;9.828;2023-04-25T16:03:58;9.80;99.90
54409;DHT22;40315;48.620;9.828;2023-04-25T16:06:25;9.60;99.90
54409;DHT22;40315;48.620;9.828;2023-04-25T16:08:53;9.80;99.90
54409;DHT22;40315;48.620;9.828;2023-04-25T16:11:22;10.20;99.90
54409;DHT22;40315;48.620;9.828;2023-04-25T16:13:49;10.40;99.90
54409;DHT22;40315;48.620;9.828;2023-04-25T16:16:16;10.50;99.90
54409;DHT22;40315;48.620;9.828;2023-04-25T16:18:43;10.70;99.90
54409;DHT22;40315;48.620;9.828;2023-04-25T16:21:10;10.40;99.90
54409;DHT22;40315;48.620;9.828;2023-04-25T16:23:41;10.30;99.90
54409;DHT22;40315;48.620;9.828;2023-04-25T16:26:09;10.40;99.90
54409;DHT22;40315;48.620;9.828;2023-04-25T16:28:37;10.50;99.90
54409;DHT22;40315;48.620;9.828;2023-04-25T16:31:04;10.00;99.90
54409;DHT22;40315;48.620;9.828;2023-04-25T16:33:33;9.60;99.90
54409;DHT22;40315;48.620;9.828;2023-04-25T16:36:01;10.80;99.90
54409;DHT22;40315;48.620;9.828;2023-04-25T16:38:28;9.90;99.90
54409;DHT22;40315;48.620;9.828;2023-04-25T16:40:55;10.10;99.90
54409;DHT22;40315;48.620;9.828;2023-04-25T16:43:22;9.90;99.90